Time;durP1;ratioP1;P1;durP2;ratioP2;P2;SDS_P1;SDS_P2;PMS_P1;PMS_P2;Temp;Humidity;BMP_temperature;BMP_pressure;BME280_temperature;BME280_humidity;BME280_pressure;Samples;Min_cycle;Max_cycle;Signal;HPM_P1;HPM_P2
2023/10/31 00:01:21;;;;;;;2.58;1.20;;;10.80;99.90;;;;;;5035183;28;20043;-51
2023/10/31 00:03:47;;;;;;;2.92;1.73;;;11.00;99.90;;;;;;5052404;28;20091;-57
2023/10/31 00:06:13;;;;;;;3.80;1.27;;;10.80;99.90;;;;;;5052198;28;20041;-55
2023/10/31 00:08:39;;;;;;;3.40;1.30;;;11.30;99.90;;;;;;5051267;28;20037;-55
2023/10/31 00:11:04;;;;;;;4.15;1.48;;;10.90;99.90;;;;;;5052293;28;20163;-54
2023/10/31 00:13:30;;;;;;;4.10;1.45;;;11.00;99.90;;;;;;5052006;28;20039;-54
2023/10/31 00:15:56;;;;;;;4.25;2.00;;;10.90;99.90;;;;;;5051832;28;20062;-55
2023/10/31 00:18:21;;;;;;;3.85;1.40;;;11.10;99.90;;;;;;5034304;28;20041;-53
2023/10/31 00:20:47;;;;;;;5.05;2.20;;;11.10;99.90;;;;;;5052240;28;20381;-54
2023/10/31 00:23:15;;;;;;;7.22;1.55;;;10.90;99.90;;;;;;5051783;28;20032;-51
2023/10/31 00:25:40;;;;;;;4.82;1.20;;;11.20;99.90;;;;;;5051238;28;20108;-56
2023/10/31 00:28:06;;;;;;;5.45;1.80;;;11.00;99.90;;;;;;5052294;28;20120;-51
2023/10/31 00:30:32;;;;;;;4.53;1.15;;;10.70;99.90;;;;;;5051739;28;20036;-51
2023/10/31 00:32:57;;;;;;;4.15;1.25;;;10.60;99.90;;;;;;5052261;28;20559;-54
2023/10/31 00:35:23;;;;;;;7.82;1.30;;;10.90;99.90;;;;;;5033710;28;20073;-55
2023/10/31 00:37:49;;;;;;;6.25;2.33;;;10.70;99.90;;;;;;5052068;28;20492;-53
2023/10/31 00:40:16;;;;;;;8.50;1.40;;;10.40;99.90;;;;;;5052191;28;20056;-56
2023/10/31 00:42:42;;;;;;;6.00;1.05;;;10.90;99.90;;;;;;5052044;28;20036;-54
2023/10/31 00:45:08;;;;;;;4.30;1.23;;;10.40;99.90;;;;;;5051504;28;20063;-56
2023/10/31 00:47:34;;;;;;;5.25;1.55;;;10.40;99.90;;;;;;5051697;28;20037;-55
2023/10/31 00:50:00;;;;;;;4.47;1.65;;;10.80;99.90;;;;;;5051538;28;20029;-52
2023/10/31 00:52:26;;;;;;;5.78;1.50;;;10.20;99.90;;;;;;5051334;28;20072;-56
2023/10/31 00:54:52;;;;;;;2.28;1.08;;;10.70;99.90;;;;;;5050976;28;20052;-55
2023/10/31 00:57:17;;;;;;;7.68;1.80;;;10.30;99.90;;;;;;5051731;28;20043;-55
2023/10/31 00:59:43;;;;;;;4.50;1.85;;;10.50;99.90;;;;;;5033554;28;20044;-55
2023/10/31 01:02:09;;;;;;;5.13;2.03;;;10.40;99.90;;;;;;5051773;28;20098;-55
2023/10/31 01:04:36;;;;;;;4.63;1.58;;;10.70;99.90;;;;;;5051644;28;20047;-55
2023/10/31 01:07:02;;;;;;;5.80;1.20;;;10.70;99.90;;;;;;5051532;28;20041;-55
2023/10/31 01:09:28;;;;;;;9.35;2.65;;;10.60;99.90;;;;;;5033827;28;20043;-54
2023/10/31 01:11:54;;;;;;;7.38;1.30;;;10.40;99.90;;;;;;5051356;28;20044;-56
2023/10/31 01:14:19;;;;;;;9.27;1.10;;;10.60;99.90;;;;;;5051329;28;20032;-57
2023/10/31 01:16:45;;;;;;;6.60;0.88;;;10.20;99.90;;;;;;5050718;28;20108;-56
2023/10/31 01:19:11;;;;;;;7.75;1.35;;;10.10;99.90;;;;;;5050676;28;20117;-53
2023/10/31 01:21:37;;;;;;;4.25;1.00;;;10.40;99.90;;;;;;5051093;28;20131;-56
2023/10/31 01:24:03;;;;;;;7.10;1.63;;;10.50;99.90;;;;;;5051427;28;20112;-54
2023/10/31 01:26:28;;;;;;;6.47;1.13;;;10.10;99.90;;;;;;5050450;28;20036;-58
2023/10/31 01:28:54;;;;;;;10.48;1.52;;;10.30;99.90;;;;;;5050927;28;20044;-56
2023/10/31 01:31:20;;;;;;;3.95;1.02;;;10.00;99.90;;;;;;5050940;28;20041;-57
2023/10/31 01:33:46;;;;;;;5.00;0.80;;;10.50;99.90;;;;;;5032587;28;20036;-55
2023/10/31 01:36:12;;;;;;;4.25;1.10;;;10.40;99.90;;;;;;5049751;28;20044;-57
2023/10/31 01:38:38;;;;;;;5.95;0.90;;;10.40;99.90;;;;;;5050565;28;20036;-56
2023/10/31 01:41:05;;;;;;;9.13;1.40;;;10.30;99.90;;;;;;5050372;28;20554;-56
2023/10/31 01:43:36;;;;;;;8.23;1.70;;;9.90;99.90;;;;;;5050414;28;20146;-53
2023/10/31 01:46:03;;;;;;;6.60;1.23;;;10.10;99.90;;;;;;5050317;28;20112;-55
2023/10/31 01:48:31;;;;;;;7.95;2.50;;;10.30;99.90;;;;;;5032887;28;20143;-55
2023/10/31 01:51:02;;;;;;;5.38;1.42;;;10.40;99.90;;;;;;5050695;28;20405;-55
2023/10/31 01:53:29;;;;;;;10.80;2.70;;;10.40;99.90;;;;;;5050089;28;20049;-57
2023/10/31 01:55:56;;;;;;;8.45;2.90;;;10.50;99.90;;;;;;5031330;28;20048;-56
2023/10/31 01:58:30;;;;;;;12.70;1.67;;;10.10;99.90;;;;;;5050678;28;20462;-58
2023/10/31 02:00:57;;;;;;;;;;;10.40;99.90;;;;;;5033207;28;20060;-58
2023/10/31 02:03:22;;;;;;;6.10;1.48;;;10.40;99.90;;;;;;5050765;28;19920;-58
2023/10/31 02:05:50;;;;;;;8.70;1.77;;;9.90;99.90;;;;;;5015703;28;20468;-56
2023/10/31 02:08:16;;;;;;;5.93;2.15;;;10.40;99.90;;;;;;5050850;28;20461;-57
2023/10/31 02:10:41;;;;;;;6.88;2.10;;;10.00;99.90;;;;;;5050117;28;20040;-57
2023/10/31 02:13:25;;;;;;;9.50;3.55;;;10.50;99.90;;;;;;5050148;28;20067;-57
2023/10/31 02:15:51;;;;;;;7.35;3.83;;;10.50;99.90;;;;;;5050598;28;20039;-57
2023/10/31 02:18:17;;;;;;;8.30;2.20;;;10.50;99.90;;;;;;5032842;28;20037;-56
2023/10/31 02:20:43;;;;;;;10.05;2.10;;;10.60;99.90;;;;;;5050448;28;20037;-56
2023/10/31 02:23:09;;;;;;;7.57;1.92;;;10.20;99.90;;;;;;5032726;28;20164;-54
2023/10/31 02:25:34;;;;;;;8.35;2.20;;;10.50;99.90;;;;;;5049970;28;20123;-56
2023/10/31 02:28:00;;;;;;;7.95;2.20;;;10.70;99.90;;;;;;5051096;28;20480;-57
2023/10/31 02:30:26;;;;;;;8.90;2.78;;;10.50;99.90;;;;;;5049747;28;20048;-57
2023/10/31 02:32:52;;;;;;;12.23;3.97;;;10.20;99.90;;;;;;5050191;28;20477;-56
2023/10/31 02:35:18;;;;;;;13.65;4.57;;;10.60;99.90;;;;;;5050307;28;20044;-56
2023/10/31 02:37:45;;;;;;;8.77;2.42;;;10.60;99.90;;;;;;5050473;28;20044;-57
2023/10/31 02:40:11;;;;;;;10.88;2.85;;;10.30;99.90;;;;;;5050174;28;20102;-56
2023/10/31 02:42:37;;;;;;;14.10;2.38;;;10.20;99.90;;;;;;5050249;28;20047;-57
2023/10/31 02:45:03;;;;;;;9.32;2.95;;;10.60;99.90;;;;;;5050385;28;20041;-57
2023/10/31 02:47:29;;;;;;;10.85;3.03;;;10.20;99.90;;;;;;5050390;28;20045;-56
2023/10/31 02:49:54;;;;;;;13.43;2.83;;;10.70;99.90;;;;;;5050113;28;20575;-57
2023/10/31 02:52:20;;;;;;;12.85;4.07;;;10.40;99.90;;;;;;5049840;28;20381;-57
2023/10/31 02:54:45;;;;;;;14.05;3.40;;;10.50;99.90;;;;;;5049991;28;20377;-58
2023/10/31 02:57:12;;;;;;;11.20;3.67;;;10.50;99.90;;;;;;5049635;28;20083;-58
2023/10/31 02:59:37;;;;;;;9.32;2.92;;;10.70;99.90;;;;;;5049919;28;20061;-56
2023/10/31 03:02:03;;;;;;;13.10;3.83;;;10.30;99.90;;;;;;5050180;28;20029;-58
2023/10/31 03:04:29;;;;;;;11.38;3.38;;;10.80;99.90;;;;;;5050414;28;20541;-57
2023/10/31 03:06:54;;;;;;;9.35;3.05;;;10.20;99.90;;;;;;5050256;28;20056;-57
2023/10/31 03:09:20;;;;;;;13.10;4.40;;;10.30;99.90;;;;;;5050008;28;20076;-57
2023/10/31 03:11:46;;;;;;;10.75;2.60;;;10.70;99.90;;;;;;5050106;28;20044;-58
2023/10/31 03:14:11;;;;;;;8.57;2.20;;;10.20;99.90;;;;;;5050335;28;20503;-58
2023/10/31 03:16:38;;;;;;;10.20;2.40;;;10.80;99.90;;;;;;5050133;28;20033;-57
2023/10/31 03:19:04;;;;;;;6.15;2.05;;;10.80;99.90;;;;;;5053106;28;20040;-57
2023/10/31 03:21:29;;;;;;;9.60;2.72;;;10.50;99.90;;;;;;5053378;28;20488;-57
2023/10/31 03:23:55;;;;;;;9.60;3.15;;;10.80;99.90;;;;;;5053132;28;20036;-58
2023/10/31 03:26:22;;;;;;;7.88;3.20;;;10.30;99.90;;;;;;5052635;28;20053;-58
2023/10/31 03:28:48;;;;;;;7.32;3.33;;;10.60;99.90;;;;;;5053714;28;20556;-59
2023/10/31 03:31:14;;;;;;;7.15;2.47;;;10.80;99.90;;;;;;5035378;28;20045;-59
2023/10/31 03:33:41;;;;;;;4.85;1.30;;;10.30;99.90;;;;;;5053108;28;20131;-60
2023/10/31 03:36:08;;;;;;;6.65;1.52;;;10.30;99.90;;;;;;5053355;28;20488;-58
2023/10/31 03:38:35;;;;;;;7.60;1.50;;;10.70;99.90;;;;;;5053298;28;20033;-58
2023/10/31 03:41:01;;;;;;;3.55;1.20;;;10.20;99.90;;;;;;5053316;28;20519;-59
2023/10/31 03:43:27;;;;;;;9.00;1.83;;;10.20;99.90;;;;;;5052751;28;20398;-58
2023/10/31 03:45:52;;;;;;;10.13;2.58;;;10.70;99.90;;;;;;5053159;28;20554;-58
2023/10/31 03:48:18;;;;;;;7.05;1.65;;;10.10;99.90;;;;;;5034766;28;20044;-58
2023/10/31 03:50:44;;;;;;;8.82;3.60;;;10.50;99.90;;;;;;5053236;28;20080;-57
2023/10/31 03:53:10;;;;;;;8.65;2.05;;;10.60;99.90;;;;;;5052830;28;20056;-56
2023/10/31 03:55:36;;;;;;;10.93;2.22;;;10.00;99.90;;;;;;5052421;28;20393;-57
2023/10/31 03:58:01;;;;;;;10.35;3.60;;;10.10;99.90;;;;;;5053065;28;20037;-56
2023/10/31 04:00:27;;;;;;;12.40;4.50;;;10.60;99.90;;;;;;5052861;28;20083;-59
2023/10/31 04:02:52;;;;;;;10.88;2.78;;;10.20;99.90;;;;;;5052689;28;20044;-56
2023/10/31 04:05:18;;;;;;;10.60;2.92;;;10.60;99.90;;;;;;5052870;28;20082;-57
2023/10/31 04:07:46;;;;;;;15.15;2.90;;;9.90;99.90;;;;;;5052029;28;20043;-55
2023/10/31 04:10:12;;;;;;;15.15;3.10;;;10.50;99.90;;;;;;5052054;28;20112;-58
2023/10/31 04:12:37;;;;;;;11.40;2.35;;;10.70;99.90;;;;;;5052326;28;20170;-57
2023/10/31 04:15:04;;;;;;;11.63;2.70;;;10.40;99.90;;;;;;5034555;28;20044;-57
2023/10/31 04:17:29;;;;;;;8.85;2.40;;;10.60;99.90;;;;;;5052335;28;20033;-57
2023/10/31 04:19:55;;;;;;;11.85;4.22;;;10.10;99.90;;;;;;5052452;28;20063;-56
2023/10/31 04:22:21;;;;;;;11.45;2.30;;;10.10;99.90;;;;;;5052664;28;20052;-57
2023/10/31 04:24:46;;;;;;;10.70;2.67;;;10.10;99.90;;;;;;5052207;28;20051;-58
2023/10/31 04:27:12;;;;;;;9.52;2.75;;;10.10;99.90;;;;;;5051579;28;20045;-57
2023/10/31 04:29:38;;;;;;;7.00;2.15;;;10.50;99.90;;;;;;5033398;28;20040;-57
2023/10/31 04:32:04;;;;;;;18.33;2.40;;;10.30;99.90;;;;;;5052207;28;20086;-59
2023/10/31 04:34:30;;;;;;;7.45;2.10;;;10.60;99.90;;;;;;5052501;28;20044;-56
2023/10/31 04:36:55;;;;;;;10.00;2.58;;;10.50;99.90;;;;;;5051872;28;20439;-58
2023/10/31 04:39:21;;;;;;;11.00;2.70;;;10.60;99.90;;;;;;5052292;28;20045;-57
2023/10/31 04:41:47;;;;;;;13.55;4.40;;;10.00;99.90;;;;;;5034312;28;20051;-57
2023/10/31 04:44:12;;;;;;;11.05;2.58;;;10.40;99.90;;;;;;5033603;28;20503;-57
2023/10/31 04:46:38;;;;;;;7.82;2.58;;;10.30;99.90;;;;;;5051898;28;20072;-58
2023/10/31 04:49:04;;;;;;;6.53;1.67;;;10.00;99.90;;;;;;5034326;28;20506;-58
2023/10/31 04:51:34;;;;;;;9.90;1.88;;;10.20;99.90;;;;;;5051674;28;20116;-57
2023/10/31 04:54:00;;;;;;;12.00;2.38;;;10.30;99.90;;;;;;5052009;28;20110;-57
2023/10/31 04:56:26;;;;;;;8.52;2.00;;;10.30;99.90;;;;;;5051331;28;20029;-57
2023/10/31 04:58:51;;;;;;;10.13;2.90;;;10.20;99.90;;;;;;5034683;28;20658;-55
2023/10/31 05:01:19;;;;;;;6.93;2.47;;;10.60;99.90;;;;;;5051460;28;20048;-57
2023/10/31 05:03:44;;;;;;;7.40;2.30;;;10.30;99.90;;;;;;5050547;28;20136;-58
2023/10/31 05:06:10;;;;;;;5.70;1.38;;;10.10;99.90;;;;;;5051149;28;20127;-57
2023/10/31 05:08:36;;;;;;;8.20;2.03;;;10.60;99.90;;;;;;5051318;28;20049;-55
2023/10/31 05:11:01;;;;;;;8.00;1.52;;;10.10;99.90;;;;;;5051511;28;20029;-57
2023/10/31 05:13:27;;;;;;;4.85;1.00;;;10.50;99.90;;;;;;5051435;28;20048;-59
2023/10/31 05:15:53;;;;;;;6.70;1.50;;;10.00;99.90;;;;;;5033290;28;20036;-58
2023/10/31 05:18:19;;;;;;;5.80;1.27;;;10.00;99.90;;;;;;5051732;28;20033;-57
2023/10/31 05:20:44;;;;;;;5.15;1.17;;;10.40;99.90;;;;;;5050827;28;20041;-58
2023/10/31 05:23:10;;;;;;;5.28;1.15;;;10.60;99.90;;;;;;5051143;28;20033;-57
2023/10/31 05:25:37;;;;;;;6.45;1.27;;;10.00;99.90;;;;;;5050856;28;20037;-58
2023/10/31 05:28:03;;;;;;;4.57;1.38;;;10.50;99.90;;;;;;5051558;28;20163;-58
2023/10/31 05:30:29;;;;;;;10.00;2.80;;;10.00;99.90;;;;;;5048442;28;20535;-55
2023/10/31 05:32:54;;;;;;;7.88;2.35;;;10.00;99.90;;;;;;5051348;28;20119;-57
2023/10/31 05:35:21;;;;;;;8.23;1.90;;;10.50;99.90;;;;;;5050487;28;20043;-56
2023/10/31 05:37:46;;;;;;;11.27;2.28;;;10.50;99.90;;;;;;5049355;28;20047;-57
2023/10/31 05:40:12;;;;;;;8.90;2.20;;;10.00;99.90;;;;;;5050123;28;20041;-56
2023/10/31 05:42:39;;;;;;;9.35;2.30;;;10.10;99.90;;;;;;5051017;28;20127;-55
2023/10/31 05:45:05;;;;;;;5.57;2.17;;;10.00;99.90;;;;;;5049456;28;20480;-56
2023/10/31 05:47:30;;;;;;;8.68;1.83;;;10.50;99.90;;;;;;5051079;28;20048;-57
2023/10/31 05:49:57;;;;;;;6.93;1.35;;;10.00;99.90;;;;;;5050664;28;20468;-56
2023/10/31 05:52:23;;;;;;;9.68;1.60;;;10.20;99.90;;;;;;5049624;28;20049;-56
2023/10/31 05:54:48;;;;;;;3.95;1.27;;;10.10;99.90;;;;;;5050155;28;20047;-56
2023/10/31 05:57:14;;;;;;;3.67;1.20;;;10.00;99.90;;;;;;5049157;28;20095;-56
2023/10/31 05:59:40;;;;;;;4.25;1.33;;;9.90;99.90;;;;;;5050941;28;20033;-55
2023/10/31 06:02:05;;;;;;;4.25;1.30;;;10.40;99.90;;;;;;5050910;28;20072;-54
2023/10/31 06:04:31;;;;;;;5.28;1.40;;;9.90;99.90;;;;;;5050809;28;20428;-55
2023/10/31 06:06:57;;;;;;;6.30;1.42;;;9.80;99.90;;;;;;5050829;28;20386;-55
2023/10/31 06:09:22;;;;;;;6.57;1.98;;;9.90;99.90;;;;;;5050809;28;20041;-56
2023/10/31 06:11:48;;;;;;;6.93;1.10;;;9.90;99.90;;;;;;5050016;28;20049;-57
2023/10/31 06:14:14;;;;;;;4.20;1.10;;;10.10;99.90;;;;;;5032648;28;20120;-52
2023/10/31 06:16:45;;;;;;;6.50;1.48;;;10.00;99.90;;;;;;5050711;28;20120;-53
2023/10/31 06:19:11;;;;;;;4.93;1.45;;;10.30;99.90;;;;;;5050877;28;20558;-53
2023/10/31 06:21:37;;;;;;;5.63;1.90;;;10.60;99.90;;;;;;5032566;28;20037;-56
2023/10/31 06:24:04;;;;;;;6.25;1.40;;;10.30;99.90;;;;;;5050507;28;20041;-56
2023/10/31 06:26:29;;;;;;;4.45;1.30;;;10.40;99.90;;;;;;5050103;28;20531;-52
2023/10/31 06:28:55;;;;;;;7.22;2.50;;;10.50;99.90;;;;;;5050724;28;20029;-55
2023/10/31 06:31:21;;;;;;;7.05;1.20;;;10.60;99.90;;;;;;5050022;28;20485;-55
2023/10/31 06:33:46;;;;;;;7.00;2.40;;;10.60;99.90;;;;;;5050276;28;20087;-54
2023/10/31 06:36:12;;;;;;;7.32;1.27;;;10.60;99.90;;;;;;5049353;28;20116;-56
2023/10/31 06:38:38;;;;;;;5.20;1.20;;;10.50;99.90;;;;;;5049304;28;20087;-54
2023/10/31 06:41:04;;;;;;;6.10;1.40;;;10.50;99.90;;;;;;5050356;28;20037;-55
2023/10/31 06:43:29;;;;;;;6.90;2.50;;;10.50;99.90;;;;;;5050628;28;20044;-53
2023/10/31 06:45:56;;;;;;;8.15;1.80;;;10.70;99.90;;;;;;5050361;28;20395;-53
2023/10/31 06:48:22;;;;;;;4.65;1.38;;;10.40;99.90;;;;;;5050258;28;20714;-54
2023/10/31 06:50:48;;;;;;;7.40;1.80;;;10.10;99.90;;;;;;5050069;28;20080;-54
2023/10/31 06:53:14;;;;;;;4.90;1.50;;;10.80;99.90;;;;;;5053623;28;20041;-57
2023/10/31 06:55:39;;;;;;;10.82;1.75;;;10.40;99.90;;;;;;5053760;28;20037;-55
2023/10/31 06:58:05;;;;;;;9.63;2.80;;;10.40;99.90;;;;;;5054127;28;20411;-56
2023/10/31 07:00:31;;;;;;;7.07;1.65;;;10.20;99.90;;;;;;5019185;28;20037;-53
2023/10/31 07:02:58;;;;;;;10.15;1.60;;;10.20;99.90;;;;;;5053779;28;20455;-56
2023/10/31 07:05:24;;;;;;;5.60;1.23;;;10.30;99.90;;;;;;5035925;28;20503;-55
2023/10/31 07:07:50;;;;;;;5.80;1.33;;;10.60;99.90;;;;;;5054120;28;20391;-53
2023/10/31 07:10:16;;;;;;;6.35;1.40;;;10.70;99.90;;;;;;5053737;28;20045;-53
2023/10/31 07:12:41;;;;;;;4.53;1.65;;;10.10;99.90;;;;;;5053906;28;20072;-53
2023/10/31 07:15:07;;;;;;;7.13;1.80;;;10.20;99.90;;;;;;5035872;28;20385;-53
2023/10/31 07:17:33;;;;;;;7.68;3.20;;;10.60;99.90;;;;;;5053569;28;20091;-54
2023/10/31 07:19:59;;;;;;;8.77;4.28;;;10.80;99.90;;;;;;5053582;28;20380;-54
2023/10/31 07:22:24;;;;;;;7.68;2.30;;;10.40;99.90;;;;;;5053343;28;20063;-54
2023/10/31 07:24:53;;;;;;;9.18;3.97;;;10.90;99.90;;;;;;5035823;28;20072;-53
2023/10/31 07:27:19;;;;;;;9.10;2.20;;;10.90;99.90;;;;;;5052741;28;20033;-53
2023/10/31 07:29:46;;;;;;;8.32;2.65;;;10.90;99.90;;;;;;5035315;28;20044;-54
2023/10/31 07:32:12;;;;;;;9.18;1.98;;;10.90;99.90;;;;;;5035661;28;20036;-53
2023/10/31 07:34:44;;;;;;;8.50;2.72;;;10.30;99.90;;;;;;5052220;28;20447;-55
2023/10/31 07:37:09;;;;;;;11.07;2.58;;;10.80;99.90;;;;;;5035344;28;20037;-55
2023/10/31 07:39:35;;;;;;;7.68;2.88;;;10.90;99.90;;;;;;5053414;28;20413;-54
2023/10/31 07:42:01;;;;;;;6.70;2.22;;;10.50;99.90;;;;;;5053289;28;20123;-55
2023/10/31 07:44:26;;;;;;;10.60;4.20;;;10.40;99.90;;;;;;5052849;28;20396;-55
2023/10/31 07:46:52;;;;;;;6.75;2.80;;;10.40;99.90;;;;;;5052810;28;20428;-54
2023/10/31 07:49:18;;;;;;;9.32;2.80;;;10.40;99.90;;;;;;5052834;28;20029;-54
2023/10/31 07:51:45;;;;;;;8.98;3.17;;;11.10;99.90;;;;;;5052980;28;20040;-53
2023/10/31 07:54:12;;;;;;;11.30;2.20;;;11.10;99.90;;;;;;5052960;28;20052;-51
2023/10/31 07:56:38;;;;;;;7.63;2.67;;;10.60;99.90;;;;;;5034203;28;20383;-55
2023/10/31 07:59:04;;;;;;;7.40;3.30;;;11.20;99.90;;;;;;5049069;28;20102;-54
2023/10/31 08:01:29;;;;;;;10.88;2.05;;;10.70;99.90;;;;;;5052220;28;20041;-54
2023/10/31 08:03:55;;;;;;;8.55;2.90;;;10.70;99.90;;;;;;5052043;28;20041;-55
2023/10/31 08:06:21;;;;;;;7.25;2.05;;;11.10;99.90;;;;;;5052585;28;20090;-54
2023/10/31 08:08:46;;;;;;;8.40;1.98;;;10.90;99.90;;;;;;5035154;28;20134;-52
2023/10/31 08:11:12;;;;;;;10.52;3.70;;;11.00;99.90;;;;;;5031657;28;20068;-51
2023/10/31 08:13:38;;;;;;;10.10;2.30;;;11.10;99.90;;;;;;5029156;28;20043;-51
2023/10/31 08:16:06;;;;;;;6.90;2.15;;;11.10;99.90;;;;;;5034973;28;21004;-53
2023/10/31 08:18:31;;;;;;;15.23;2.60;;;11.50;99.90;;;;;;5018536;28;20056;-55
2023/10/31 08:20:57;;;;;;;8.80;3.47;;;11.20;99.90;;;;;;5026234;28;20500;-53
2023/10/31 08:23:23;;;;;;;10.48;2.20;;;11.30;99.90;;;;;;5034989;28;20037;-55
2023/10/31 08:25:50;;;;;;;9.40;3.83;;;11.40;99.90;;;;;;5037135;28;20033;-56
2023/10/31 08:28:16;;;;;;;9.20;4.22;;;10.90;99.90;;;;;;5037681;28;20040;-56
2023/10/31 08:30:41;;;;;;;9.07;2.53;;;11.50;99.90;;;;;;5036639;28;20478;-54
2023/10/31 08:33:07;;;;;;;10.40;2.90;;;11.30;99.90;;;;;;5038292;28;20029;-54
2023/10/31 08:35:33;;;;;;;10.18;3.60;;;11.30;99.90;;;;;;5039084;28;20552;-55
2023/10/31 08:37:59;;;;;;;9.20;4.10;;;11.40;99.90;;;;;;5037330;28;20488;-54
2023/10/31 08:40:26;;;;;;;11.18;2.67;;;11.80;99.90;;;;;;5037756;28;20060;-56
2023/10/31 08:42:52;;;;;;;10.90;2.72;;;11.10;99.90;;;;;;5036993;28;20449;-52
2023/10/31 08:45:18;;;;;;;7.47;3.45;;;11.30;99.90;;;;;;5037625;28;20041;-53
2023/10/31 08:47:43;;;;;;;8.88;3.70;;;11.60;99.90;;;;;;5036852;28;20045;-55
2023/10/31 08:50:10;;;;;;;8.57;3.15;;;11.50;99.90;;;;;;5027627;28;20558;-53
2023/10/31 08:52:36;;;;;;;9.73;2.67;;;11.60;99.90;;;;;;5036782;28;20057;-52
2023/10/31 08:55:03;;;;;;;9.02;2.80;;;12.00;99.90;;;;;;5037992;28;20495;-53
2023/10/31 08:57:29;;;;;;;8.40;3.20;;;11.50;99.90;;;;;;5036929;28;20546;-55
2023/10/31 08:59:54;;;;;;;9.02;2.67;;;11.90;99.90;;;;;;5036717;28;20547;-52
2023/10/31 09:02:20;;;;;;;5.65;1.65;;;11.70;99.90;;;;;;5009431;28;20127;-55
2023/10/31 09:04:46;;;;;;;5.78;1.80;;;12.10;99.90;;;;;;5030392;28;20124;-51
2023/10/31 09:07:11;;;;;;;7.32;1.70;;;11.80;99.90;;;;;;5038134;28;20041;-55
2023/10/31 09:09:37;;;;;;;6.85;1.13;;;12.40;99.90;;;;;;5038832;28;20045;-55
2023/10/31 09:12:03;;;;;;;8.52;1.40;;;12.20;99.90;;;;;;5039399;28;20039;-55
2023/10/31 09:14:29;;;;;;;4.88;1.10;;;12.40;99.90;;;;;;5038186;28;20435;-52
2023/10/31 09:16:55;;;;;;;8.15;0.57;;;12.10;99.90;;;;;;5038976;28;20139;-54
2023/10/31 09:19:20;;;;;;;3.65;0.70;;;12.60;99.90;;;;;;5037985;28;20071;-54
2023/10/31 09:21:46;;;;;;;8.57;0.80;;;12.30;99.90;;;;;;5037941;28;20037;-53
2023/10/31 09:24:12;;;;;;;5.32;0.95;;;12.30;99.90;;;;;;5037523;28;20045;-54
2023/10/31 09:26:43;;;;;;;6.22;1.15;;;12.30;99.90;;;;;;5037525;28;20399;-55
2023/10/31 09:29:10;;;;;;;4.82;0.90;;;12.40;99.90;;;;;;5037832;28;20044;-55
2023/10/31 09:31:35;;;;;;;6.05;1.27;;;12.30;99.90;;;;;;5038422;28;20043;-55
2023/10/31 09:34:03;;;;;;;6.40;1.00;;;12.60;99.90;;;;;;5037948;28;20532;-55
2023/10/31 09:36:31;;;;;;;4.43;0.50;;;12.60;99.90;;;;;;5038043;28;20037;-55
2023/10/31 09:38:57;;;;;;;4.93;0.50;;;12.80;99.90;;;;;;5037941;28;20021;-54
2023/10/31 09:41:23;;;;;;;4.80;0.60;;;12.40;99.90;;;;;;5038308;28;20120;-54
2023/10/31 09:43:50;;;;;;;7.10;0.68;;;12.80;99.90;;;;;;5037228;28;20049;-56
2023/10/31 09:46:16;;;;;;;2.97;0.63;;;12.70;99.90;;;;;;5038157;28;20124;-55
2023/10/31 09:48:43;;;;;;;5.28;0.70;;;12.90;99.90;;;;;;5038248;28;20087;-54
2023/10/31 09:51:10;;;;;;;8.10;0.75;;;12.60;99.90;;;;;;5037156;28;20040;-55
2023/10/31 09:53:41;;;;;;;5.07;0.60;;;12.70;99.90;;;;;;5020198;28;20132;-55
2023/10/31 09:56:07;;;;;;;5.47;0.68;;;12.80;99.90;;;;;;5037599;28;20029;-56
2023/10/31 09:58:34;;;;;;;3.33;0.50;;;12.80;99.90;;;;;;5036544;28;20178;-56
2023/10/31 10:01:00;;;;;;;4.25;0.55;;;12.90;99.90;;;;;;5035946;28;20049;-51
2023/10/31 10:03:27;;;;;;;5.38;0.70;;;12.90;99.90;;;;;;5035339;28;20048;-55
2023/10/31 10:05:52;;;;;;;2.95;0.50;;;13.00;99.90;;;;;;5033384;28;20048;-55
2023/10/31 10:08:19;;;;;;;3.03;0.63;;;13.40;99.90;;;;;;5035840;28;20170;-55
2023/10/31 10:10:45;;;;;;;2.88;0.68;;;13.60;99.90;;;;;;5035894;28;20049;-54
2023/10/31 10:13:12;;;;;;;5.35;0.40;;;13.90;99.90;;;;;;5033796;28;20171;-56
2023/10/31 10:15:49;;;;;;;9.23;0.60;;;14.30;99.90;;;;;;5036034;28;20041;-55
2023/10/31 10:18:37;;;;;;;8.30;0.90;;;14.40;99.90;;;;;;5036470;28;20044;-55
2023/10/31 10:21:04;;;;;;;4.95;0.80;;;14.50;99.90;;;;;;5036354;28;20069;-53
2023/10/31 10:23:30;;;;;;;4.50;0.70;;;14.40;99.90;;;;;;5037384;28;20389;-55
2023/10/31 10:25:57;;;;;;;3.03;0.47;;;14.20;99.90;;;;;;5020656;28;20040;-55
2023/10/31 10:28:26;;;;;;;4.10;0.75;;;14.20;99.90;;;;;;5041046;28;20433;-54
2023/10/31 10:30:53;;;;;;;5.13;0.50;;;14.20;99.90;;;;;;5040841;28;20037;-55
2023/10/31 10:33:20;;;;;;;3.92;0.40;;;14.10;99.90;;;;;;5041168;28;20050;-54
2023/10/31 10:35:46;;;;;;;4.40;0.45;;;14.10;99.90;;;;;;5039389;28;20083;-52
2023/10/31 10:38:14;;;;;;;5.00;0.50;;;14.00;99.90;;;;;;5034557;28;20035;-56
2023/10/31 10:40:44;;;;;;;2.25;0.40;;;14.00;99.90;;;;;;5016267;28;20073;-54
2023/10/31 10:43:21;;;;;;;4.03;0.60;;;13.90;99.90;;;;;;5038245;28;20682;-53
2023/10/31 10:45:58;;;;;;;5.63;0.63;;;13.90;99.90;;;;;;5039850;28;20124;-53
2023/10/31 10:48:28;;;;;;;3.20;0.47;;;14.00;99.90;;;;;;5037431;28;20583;-54
2023/10/31 10:51:05;;;;;;;2.50;0.60;;;13.90;99.90;;;;;;5038453;28;20106;-54
2023/10/31 10:53:43;;;;;;;3.30;0.40;;;14.00;99.90;;;;;;5041274;28;20134;-55
2023/10/31 10:56:16;;;;;;;3.97;0.50;;;14.10;99.90;;;;;;5041274;28;20491;-53
2023/10/31 10:58:53;;;;;;;4.38;0.57;;;14.20;99.90;;;;;;5041178;28;20029;-55
2023/10/31 11:01:19;;;;;;;3.42;0.60;;;14.40;99.90;;;;;;5041593;28;20041;-52
2023/10/31 11:03:46;;;;;;;3.65;0.40;;;14.50;99.90;;;;;;5041283;28;20037;-55
2023/10/31 11:06:13;;;;;;;3.30;0.52;;;14.70;99.90;;;;;;5039960;28;20044;-53
2023/10/31 11:08:40;;;;;;;4.82;0.98;;;14.70;99.90;;;;;;5040771;28;20060;-54
2023/10/31 11:11:06;;;;;;;7.35;0.68;;;14.90;99.90;;;;;;5023661;28;20037;-56
2023/10/31 11:13:32;;;;;;;1.77;0.30;;;15.00;99.90;;;;;;5039736;28;20029;-52
2023/10/31 11:16:07;;;;;;;2.92;0.55;;;15.00;99.90;;;;;;5041594;28;20036;-53
2023/10/31 11:18:33;;;;;;;5.15;0.60;;;15.10;99.90;;;;;;5041307;28;20481;-54
2023/10/31 11:20:58;;;;;;;2.75;0.55;;;15.10;99.90;;;;;;5047483;28;20053;-55
2023/10/31 11:23:24;;;;;;;3.58;0.50;;;15.30;99.90;;;;;;5047380;28;20678;-56
2023/10/31 11:25:53;;;;;;;4.18;0.70;;;15.50;99.90;;;;;;5050093;28;20033;-53
2023/10/31 11:28:19;;;;;;;3.20;0.70;;;15.90;99.90;;;;;;5049937;28;20076;-56
2023/10/31 11:30:49;;;;;;;4.70;0.85;;;15.90;99.90;;;;;;5052067;28;20487;-56
2023/10/31 11:33:18;;;;;;;3.95;0.52;;;16.00;99.90;;;;;;5051314;28;20056;-56
2023/10/31 11:35:49;;;;;;;3.40;0.63;;;16.20;99.90;;;;;;5052156;28;20033;-55
2023/10/31 11:38:14;;;;;;;2.65;0.50;;;16.20;99.90;;;;;;5050468;28;20044;-56
2023/10/31 11:40:49;;;;;;;4.53;0.70;;;16.00;99.90;;;;;;5051334;28;20381;-53
2023/10/31 11:43:15;;;;;;;2.92;0.50;;;15.80;99.90;;;;;;5050739;28;20049;-55
2023/10/31 11:45:47;;;;;;;4.43;0.60;;;15.60;99.90;;;;;;5050950;28;20059;-54
2023/10/31 11:48:13;;;;;;;3.13;0.40;;;15.50;99.90;;;;;;5047712;28;20076;-55
2023/10/31 11:50:39;;;;;;;2.20;0.73;;;15.40;99.90;;;;;;5050606;28;20041;-54
2023/10/31 11:53:16;;;;;;;1.60;0.40;;;15.30;99.90;;;;;;5050235;28;20061;-54
2023/10/31 11:55:46;;;;;;;2.25;0.40;;;15.10;99.90;;;;;;5050367;28;20099;-55
2023/10/31 11:58:20;;;;;;;2.10;0.38;;;14.90;99.90;;;;;;5050402;28;20093;-52
2023/10/31 12:00:49;;;;;;;2.38;0.40;;;14.70;99.90;;;;;;5050451;28;20103;-55
2023/10/31 12:03:22;;;;;;;1.77;0.20;;;14.60;99.90;;;;;;5051881;28;20404;-55
2023/10/31 12:05:55;;;;;;;2.58;0.50;;;14.70;99.90;;;;;;5052790;28;20040;-56
2023/10/31 12:08:38;;;;;;;1.63;0.32;;;14.90;99.90;;;;;;5052010;28;20062;-53
2023/10/31 12:11:09;;;;;;;2.50;0.40;;;15.10;99.90;;;;;;5033599;28;20523;-55
2023/10/31 12:13:37;;;;;;;2.33;0.40;;;15.30;99.90;;;;;;5044814;28;20444;-54
2023/10/31 12:16:04;;;;;;;2.53;0.50;;;15.30;99.90;;;;;;5050047;28;20037;-53
2023/10/31 12:18:29;;;;;;;1.58;0.30;;;15.10;99.90;;;;;;5050037;28;20051;-54
2023/10/31 12:20:56;;;;;;;3.00;0.40;;;14.90;99.90;;;;;;5051509;28;20033;-52
2023/10/31 12:23:21;;;;;;;1.20;0.30;;;15.00;99.90;;;;;;5033515;28;20045;-54
2023/10/31 12:25:48;;;;;;;3.03;0.57;;;15.10;99.90;;;;;;5051884;28;20036;-53
2023/10/31 12:28:18;;;;;;;1.98;0.43;;;15.10;99.90;;;;;;5051600;28;20049;-54
2023/10/31 12:30:54;;;;;;;2.28;0.40;;;15.40;99.90;;;;;;5052353;28;20048;-56
2023/10/31 12:33:24;;;;;;;5.13;0.40;;;15.60;99.90;;;;;;5052743;28;20047;-56
2023/10/31 12:35:52;;;;;;;2.75;0.45;;;15.60;99.90;;;;;;5052451;28;20072;-55
2023/10/31 12:38:18;;;;;;;2.67;0.47;;;15.60;99.90;;;;;;5052740;28;20521;-55
2023/10/31 12:40:44;;;;;;;1.48;0.28;;;15.40;99.90;;;;;;5034100;28;20128;-54
2023/10/31 12:43:10;;;;;;;2.22;0.30;;;15.20;99.90;;;;;;5034185;28;20049;-54